Time;durP1;ratioP1;P1;durP2;ratioP2;P2;SDS_P1;SDS_P2;PMS_P1;PMS_P2;Temp;Humidity;BMP_temperature;BMP_pressure;BME280_temperature;BME280_humidity;BME280_pressure;Samples;Min_cycle;Max_cycle;Signal;HPM_P1;HPM_P2
2023/03/30 00:00:17;;;;;;;3.77;1.90;;;;;;;15.73;81.63;99843.56;5034261;28;20225;-71
2023/03/30 00:02:43;;;;;;;4.27;1.80;;;;;;;15.67;81.97;99836.81;5033124;28;20212;-71
2023/03/30 00:05:09;;;;;;;4.67;2.00;;;;;;;15.61;82.02;99838.81;5040855;28;21166;-71
2023/03/30 00:07:37;;;;;;;3.77;1.97;;;;;;;15.55;82.34;99853.75;5034441;28;20199;-71
2023/03/30 00:10:03;;;;;;;5.27;2.33;;;;;;;15.50;82.55;99841.81;5033217;28;20199;-71
2023/03/30 00:12:28;;;;;;;4.47;2.23;;;;;;;15.44;82.86;99834.19;5040125;28;20282;-72
2023/03/30 00:14:54;;;;;;;4.07;1.80;;;;;;;15.38;83.37;99836.13;5041646;28;20662;-72
2023/03/30 00:17:19;;;;;;;4.30;2.00;;;;;;;15.33;83.63;99830.22;5031281;28;20195;-72
2023/03/30 00:19:44;;;;;;;5.07;2.00;;;;;;;15.27;84.17;99830.47;5039845;28;20667;-71
2023/03/30 00:22:10;;;;;;;5.07;1.90;;;;;;;15.22;83.99;99827.16;5036744;28;20227;-72
2023/03/30 00:24:35;;;;;;;3.80;1.77;;;;;;;15.17;84.59;99823.84;5039249;28;20289;-71
2023/03/30 00:27:01;;;;;;;4.97;1.77;;;;;;;15.12;84.63;99818.81;5030347;28;20282;-72
2023/03/30 00:29:27;;;;;;;3.57;1.70;;;;;;;15.09;85.26;99821.53;5043785;28;20186;-71
2023/03/30 00:31:52;;;;;;;5.97;2.10;;;;;;;15.08;85.29;99825.91;5048198;28;20956;-72
2023/03/30 00:34:18;;;;;;;3.60;1.60;;;;;;;15.08;85.47;99832.84;5047338;28;20206;-70
2023/03/30 00:36:45;;;;;;;3.53;2.10;;;;;;;15.08;85.34;99831.09;5037608;28;20187;-71
2023/03/30 00:39:12;;;;;;;5.07;2.10;;;;;;;15.10;86.01;99836.25;5033934;28;20270;-72
2023/03/30 00:41:38;;;;;;;5.20;2.10;;;;;;;15.09;86.29;99831.94;5041105;28;20686;-71
2023/03/30 00:44:06;;;;;;;5.80;2.27;;;;;;;15.05;87.36;99843.41;5040209;28;20182;-71
2023/03/30 00:46:32;;;;;;;4.33;1.90;;;;;;;14.99;87.94;99841.84;5037747;28;20740;-71
2023/03/30 00:49:03;;;;;;;5.30;2.40;;;;;;;14.93;88.33;99831.63;5048954;28;20607;-71
2023/03/30 00:51:31;;;;;;;5.13;2.17;;;;;;;14.86;89.57;99825.78;5037740;28;20207;-72
2023/03/30 00:54:06;;;;;;;3.23;2.27;;;;;;;14.81;89.92;99827.69;5057773;28;20658;-71
2023/03/30 00:56:32;;;;;;;5.83;2.27;;;;;;;14.75;90.25;99820.06;5038500;28;20174;-72
2023/03/30 00:58:59;;;;;;;3.77;2.10;;;;;;;14.71;91.28;99821.94;5058543;28;20182;-72
2023/03/30 01:01:27;;;;;;;7.80;2.30;;;;;;;14.68;91.69;99821.19;5039495;28;20214;-71
2023/03/30 01:03:56;;;;;;;3.63;1.83;;;;;;;14.70;91.77;99827.22;5048683;28;20281;-72
2023/03/30 01:06:25;;;;;;;4.57;1.93;;;;;;;14.71;91.68;99861.00;5052661;28;20183;-70
2023/03/30 01:08:52;;;;;;;4.13;2.00;;;;;;;14.72;92.39;99883.53;5036047;28;20179;-71
2023/03/30 01:11:17;;;;;;;4.53;2.00;;;;;;;14.72;92.83;99880.09;5034842;28;20690;-71
2023/03/30 01:13:49;;;;;;;6.00;2.33;;;;;;;14.68;93.47;99868.06;5037053;28;20183;-73
2023/03/30 01:16:41;;;;;;;5.37;2.17;;;;;;;14.63;94.21;99849.97;5030123;28;20195;-73
2023/03/30 01:19:10;;;;;;;5.43;2.20;;;;;;;14.58;95.03;99836.25;5037376;28;20247;-72
2023/03/30 01:22:03;;;;;;;3.83;1.93;;;;;;;14.53;95.47;99833.78;5037594;28;20247;-71
2023/03/30 01:24:52;;;;;;;5.47;2.23;;;;;;;14.48;96.03;99846.09;5035093;28;20199;-70
2023/03/30 01:27:57;;;;;;;4.13;2.60;;;;;;;14.42;96.73;99839.34;5038728;28;20228;-71
2023/03/30 01:30:41;;;;;;;6.33;2.50;;;;;;;14.35;97.58;99830.03;5053321;28;20753;-72
2023/03/30 01:33:28;;;;;;;3.13;2.33;;;;;;;14.30;98.14;99839.75;5037886;28;20300;-71
2023/03/30 01:36:06;;;;;;;3.57;2.17;;;;;;;14.26;98.52;99843.31;5042719;28;20198;-71
2023/03/30 01:38:43;;;;;;;3.27;2.00;;;;;;;14.24;99.00;99845.13;5042566;28;20197;-71
2023/03/30 01:41:21;;;;;;;4.27;2.43;;;;;;;14.22;99.20;99850.38;5039764;28;20277;-72
2023/03/30 01:44:28;;;;;;;4.97;2.33;;;;;;;14.24;99.34;99855.53;5041505;28;20209;-71
2023/03/30 01:47:09;;;;;;;4.47;2.13;;;;;;;14.25;99.79;99875.47;5020056;28;20208;-71
2023/03/30 01:49:52;;;;;;;7.40;2.37;;;;;;;14.28;99.76;99886.66;5036440;28;20183;-72
2023/03/30 01:52:20;;;;;;;4.13;2.60;;;;;;;14.32;100.00;99895.19;5032973;28;20192;-71
2023/03/30 01:55:09;;;;;;;8.87;3.27;;;;;;;14.37;100.00;99884.66;5044517;28;20186;-71
2023/03/30 01:58:05;;;;;;;8.00;2.90;;;;;;;14.43;100.00;99866.25;5044329;28;20992;-71
2023/03/30 02:00:33;;;;;;;8.87;3.20;;;;;;;14.46;100.00;99868.72;5030204;28;20640;-72
2023/03/30 02:03:04;;;;;;;11.30;3.63;;;;;;;14.51;100.00;99868.59;5042952;28;20232;-72
2023/03/30 02:05:30;;;;;;;8.53;3.33;;;;;;;14.54;100.00;99871.09;5043795;28;20191;-72
2023/03/30 02:08:01;;;;;;;12.80;3.90;;;;;;;14.57;100.00;99869.25;5040500;28;20261;-71
2023/03/30 02:10:32;;;;;;;10.70;3.67;;;;;;;14.57;100.00;99845.81;5036721;28;20313;-71
2023/03/30 02:12:59;;;;;;;11.53;3.47;;;;;;;14.55;100.00;99833.72;5043635;28;20240;-71
2023/03/30 02:15:30;;;;;;;7.43;3.27;;;;;;;14.50;100.00;99828.69;5056279;28;20187;-72
2023/03/30 02:17:55;;;;;;;9.07;3.20;;;;;;;14.45;100.00;99814.94;5044384;28;20670;-72
2023/03/30 02:20:20;;;;;;;9.37;3.00;;;;;;;14.41;100.00;99803.78;5035328;28;20186;-72
2023/03/30 02:22:47;;;;;;;10.03;3.20;;;;;;;14.39;100.00;99799.53;5039865;28;20218;-71
2023/03/30 02:25:12;;;;;;;4.97;2.50;;;;;;;14.39;100.00;99800.38;5039256;28;20194;-72
2023/03/30 02:27:40;;;;;;;6.33;3.00;;;;;;;14.39;100.00;99771.75;5047456;28;20186;-72
2023/03/30 02:30:07;;;;;;;7.93;3.30;;;;;;;14.38;100.00;99759.63;5037860;28;20187;-72
2023/03/30 02:32:40;;;;;;;7.17;3.13;;;;;;;14.38;100.00;99741.41;5043861;28;20308;-72
2023/03/30 02:35:23;;;;;;;7.30;3.03;;;;;;;14.35;100.00;99733.72;5030714;28;20206;-72
2023/03/30 02:38:09;;;;;;;6.17;2.83;;;;;;;14.34;100.00;99734.63;5034172;28;20179;-73
2023/03/30 02:41:00;;;;;;;6.87;3.03;;;;;;;14.31;100.00;99735.56;5037479;28;20191;-73
2023/03/30 02:43:37;;;;;;;7.30;3.17;;;;;;;14.31;100.00;99737.31;5046991;28;20222;-71
2023/03/30 02:46:06;;;;;;;6.77;2.63;;;;;;;14.30;100.00;99738.22;5049922;28;20670;-74
2023/03/30 02:48:40;;;;;;;7.60;3.30;;;;;;;14.29;100.00;99724.34;5055005;28;20562;-73
2023/03/30 02:51:27;;;;;;;10.27;2.90;;;;;;;14.30;100.00;99735.63;5033945;28;20191;-73
2023/03/30 02:54:16;;;;;;;8.40;3.50;;;;;;;14.34;100.00;99742.44;5034764;28;20203;-73
2023/03/30 02:56:55;;;;;;;7.40;3.40;;;;;;;14.37;100.00;99749.28;5039041;28;20189;-73
2023/03/30 02:59:40;;;;;;;9.27;3.63;;;;;;;14.41;100.00;99732.66;5035399;28;20179;-73
2023/03/30 03:02:14;;;;;;;10.23;3.37;;;;;;;14.41;100.00;99736.09;5031670;28;20226;-73
2023/03/30 03:04:42;;;;;;;7.07;3.10;;;;;;;14.43;100.00;99736.06;5039915;28;20197;-73
2023/03/30 03:07:10;;;;;;;6.30;2.83;;;;;;;14.44;100.00;99751.63;5035529;28;20674;-74
2023/03/30 03:09:36;;;;;;;7.73;2.73;;;;;;;14.48;100.00;99768.00;5033101;28;20192;-71
2023/03/30 03:12:01;;;;;;;11.37;3.23;;;;;;;14.50;100.00;99758.38;5028140;28;20207;-71
2023/03/30 03:14:28;;;;;;;8.97;3.00;;;;;;;14.53;100.00;99754.81;5029669;28;20188;-71
2023/03/30 03:16:53;;;;;;;9.83;3.93;;;;;;;14.55;100.00;99735.66;5037557;28;21227;-73
2023/03/30 03:19:19;;;;;;;6.47;2.80;;;;;;;14.53;100.00;99737.44;5038598;28;20223;-71
2023/03/30 03:21:44;;;;;;;7.87;3.17;;;;;;;14.54;100.00;99744.38;5031233;28;20203;-71
2023/03/30 03:24:12;;;;;;;11.00;3.63;;;;;;;14.53;100.00;99708.81;5040516;28;20187;-71
2023/03/30 03:26:38;;;;;;;6.93;3.50;;;;;;;14.51;100.00;99678.53;5044385;28;20186;-71
2023/03/30 03:29:04;;;;;;;8.20;3.13;;;;;;;14.47;100.00;99656.94;5043782;28;20248;-74
2023/03/30 03:31:29;;;;;;;7.67;3.63;;;;;;;14.44;100.00;99637.09;5031417;28;20202;-71
2023/03/30 03:33:55;;;;;;;6.60;2.93;;;;;;;14.39;100.00;99657.22;5032407;28;20752;-74
2023/03/30 03:36:21;;;;;;;7.23;3.07;;;;;;;14.34;100.00;99674.75;5037783;28;20183;-72
2023/03/30 03:38:47;;;;;;;8.87;3.47;;;;;;;14.30;100.00;99668.78;5047765;28;20225;-74
2023/03/30 03:41:12;;;;;;;6.60;3.00;;;;;;;14.28;100.00;99669.75;5035523;28;20340;-71
2023/03/30 03:43:37;;;;;;;9.67;3.53;;;;;;;14.27;100.00;99657.63;5042851;28;20206;-71
2023/03/30 03:46:03;;;;;;;6.43;2.70;;;;;;;14.25;100.00;99659.44;5033715;28;20220;-71
2023/03/30 03:48:28;;;;;;;8.67;3.60;;;;;;;14.26;100.00;99645.53;5031360;28;20989;-71
2023/03/30 03:50:56;;;;;;;5.93;2.90;;;;;;;14.25;100.00;99641.22;5030494;28;20187;-72
2023/03/30 03:53:22;;;;;;;5.50;3.37;;;;;;;14.22;100.00;99633.53;5038311;28;20204;-71
2023/03/30 03:55:48;;;;;;;8.07;3.63;;;;;;;14.20;100.00;99650.97;5032269;28;20249;-74
2023/03/30 03:58:14;;;;;;;8.60;3.37;;;;;;;14.16;100.00;99631.97;5036094;28;20924;-71
2023/03/30 04:00:40;;;;;;;7.63;2.87;;;;;;;14.14;100.00;99623.41;5035300;28;20185;-71
2023/03/30 04:03:06;;;;;;;6.43;2.70;;;;;;;14.11;100.00;99623.50;5033890;28;20211;-74
2023/03/30 04:05:32;;;;;;;8.07;2.77;;;;;;;14.10;100.00;99621.81;5032113;28;20278;-71
2023/03/30 04:07:57;;;;;;;7.03;2.87;;;;;;;14.08;100.00;99640.03;5030204;28;20185;-74
2023/03/30 04:10:23;;;;;;;5.43;2.63;;;;;;;14.08;100.00;99618.41;5034236;28;20216;-71
2023/03/30 04:12:48;;;;;;;6.27;2.70;;;;;;;14.09;100.00;99601.88;5030901;28;20263;-71
2023/03/30 04:15:14;;;;;;;6.33;3.27;;;;;;;14.10;100.00;99606.19;5030281;28;20184;-72
2023/03/30 04:17:40;;;;;;;4.87;2.93;;;;;;;14.10;100.00;99617.44;5037784;28;20687;-72
2023/03/30 04:20:10;;;;;;;11.37;4.20;;;;;;;14.10;100.00;99622.63;5036533;28;20197;-72
2023/03/30 04:22:35;;;;;;;10.37;4.00;;;;;;;14.09;100.00;99618.34;5039447;28;20211;-71
2023/03/30 04:25:05;;;;;;;9.33;3.50;;;;;;;14.06;100.00;99617.59;5038783;28;20575;-70
2023/03/30 04:27:31;;;;;;;10.23;4.17;;;;;;;14.03;100.00;99616.78;5042906;28;20190;-71
2023/03/30 04:29:57;;;;;;;12.33;4.50;;;;;;;14.00;100.00;99619.50;5041173;28;20248;-73
2023/03/30 04:32:23;;;;;;;12.10;4.93;;;;;;;13.95;100.00;99616.22;5038694;28;21491;-70
2023/03/30 04:34:53;;;;;;;11.53;4.40;;;;;;;13.86;100.00;99619.09;5032188;28;20687;-72
2023/03/30 04:37:22;;;;;;;16.60;4.73;;;;;;;13.75;100.00;99618.63;5036770;28;20719;-71
2023/03/30 04:39:49;;;;;;;11.50;3.90;;;;;;;13.65;100.00;99629.34;5039687;28;20189;-72
2023/03/30 04:42:18;;;;;;;11.53;4.60;;;;;;;13.59;100.00;99624.31;5037241;28;20207;-71
2023/03/30 04:44:44;;;;;;;11.43;3.93;;;;;;;13.56;100.00;99616.59;5035830;28;20192;-72
2023/03/30 04:47:09;;;;;;;10.33;3.87;;;;;;;13.52;100.00;99613.25;5038874;28;20256;-72
2023/03/30 04:49:35;;;;;;;9.57;4.13;;;;;;;13.47;100.00;99604.75;5035717;28;20192;-72
2023/03/30 04:52:00;;;;;;;10.87;3.50;;;;;;;13.41;100.00;99602.38;5030935;28;20235;-71
2023/03/30 04:54:25;;;;;;;7.47;4.17;;;;;;;13.38;100.00;99597.22;5033315;28;20191;-72
2023/03/30 04:56:51;;;;;;;9.77;4.10;;;;;;;13.34;100.00;99599.09;5037114;28;20186;-71
2023/03/30 04:59:16;;;;;;;12.23;3.97;;;;;;;13.30;100.00;99587.06;5035204;28;20182;-71
2023/03/30 05:01:41;;;;;;;9.67;3.70;;;;;;;13.27;100.00;99598.44;5034285;28;20732;-72
2023/03/30 05:04:07;;;;;;;14.50;4.63;;;;;;;13.24;100.00;99598.50;5041206;28;20188;-72
2023/03/30 05:06:32;;;;;;;10.43;4.03;;;;;;;13.20;100.00;99591.69;5038628;28;20669;-71
2023/03/30 05:08:58;;;;;;;6.77;3.87;;;;;;;13.18;100.00;99592.66;5051242;28;20298;-72
2023/03/30 05:11:23;;;;;;;12.33;4.73;;;;;;;13.19;100.00;99613.38;5036215;28;20464;-72
2023/03/30 05:13:55;;;;;;;6.67;3.93;;;;;;;13.20;100.00;99628.09;5045191;28;20204;-71
2023/03/30 05:16:21;;;;;;;11.27;4.70;;;;;;;13.23;100.00;99658.34;5041112;28;20432;-72
2023/03/30 05:18:46;;;;;;;9.70;4.77;;;;;;;13.20;100.00;99721.63;5050535;28;20576;-72
2023/03/30 05:21:11;;;;;;;12.77;4.53;;;;;;;13.13;100.00;99779.00;5049599;28;20194;-71
2023/03/30 05:23:38;;;;;;;11.10;4.63;;;;;;;13.10;100.00;99793.75;5038692;28;20202;-72
2023/03/30 05:26:05;;;;;;;10.40;4.77;;;;;;;13.09;100.00;99801.63;5040536;28;20182;-72
2023/03/30 05:28:31;;;;;;;9.17;4.27;;;;;;;13.05;100.00;99803.44;5049222;28;20194;-71
2023/03/30 05:30:57;;;;;;;10.30;4.20;;;;;;;13.03;100.00;99791.38;5041438;28;20184;-72
2023/03/30 05:33:23;;;;;;;6.67;3.50;;;;;;;13.03;100.00;99813.03;5040474;28;20557;-71
2023/03/30 05:35:48;;;;;;;8.67;3.63;;;;;;;13.05;100.00;99815.56;5042811;28;20212;-72
2023/03/30 05:38:14;;;;;;;9.57;3.90;;;;;;;13.04;100.00;99812.13;5035121;28;20642;-71
2023/03/30 05:40:39;;;;;;;6.97;3.40;;;;;;;13.04;100.00;99806.94;5039852;28;20242;-72
2023/03/30 05:43:05;;;;;;;7.63;3.80;;;;;;;13.05;100.00;99800.84;5031586;28;20253;-72
2023/03/30 05:45:30;;;;;;;10.43;3.73;;;;;;;13.05;100.00;99807.78;5034912;28;20189;-71
2023/03/30 05:47:55;;;;;;;7.27;3.77;;;;;;;13.04;100.00;99826.84;5035545;28;20244;-71
2023/03/30 05:50:21;;;;;;;7.33;4.07;;;;;;;13.04;100.00;99845.03;5034483;28;20295;-72
2023/03/30 05:52:46;;;;;;;8.67;3.87;;;;;;;13.04;100.00;99856.28;5030939;28;20209;-71
2023/03/30 05:55:12;;;;;;;8.20;3.83;;;;;;;13.02;100.00;99855.47;5027198;28;20194;-72
2023/03/30 05:57:37;;;;;;;7.30;3.93;;;;;;;13.02;100.00;99873.66;5035187;28;20184;-71
2023/03/30 06:00:05;;;;;;;6.80;3.50;;;;;;;13.02;100.00;99880.59;5035675;28;20198;-72
2023/03/30 06:02:31;;;;;;;8.20;4.03;;;;;;;13.01;100.00;99889.28;5029570;28;20234;-72
2023/03/30 06:04:56;;;;;;;7.50;3.70;;;;;;;13.01;100.00;99878.91;5030070;28;20198;-71
2023/03/30 06:07:23;;;;;;;9.83;4.40;;;;;;;13.02;100.00;99865.00;5030035;28;20649;-72
2023/03/30 06:09:48;;;;;;;7.23;4.03;;;;;;;13.01;100.00;99877.16;5032385;28;20201;-72
2023/03/30 06:12:14;;;;;;;8.53;4.57;;;;;;;13.02;100.00;99862.41;5029600;28;20204;-71
2023/03/30 06:14:39;;;;;;;10.17;3.93;;;;;;;13.03;100.00;99880.56;5030467;28;20192;-71
2023/03/30 06:17:04;;;;;;;7.40;3.93;;;;;;;13.04;100.00;99912.56;5034783;28;20330;-72
2023/03/30 06:19:30;;;;;;;7.27;3.50;;;;;;;13.04;100.00;99926.44;5044478;28;20435;-72
2023/03/30 06:21:55;;;;;;;8.63;4.23;;;;;;;13.05;100.00;99911.69;5040506;28;20207;-72
2023/03/30 06:24:20;;;;;;;7.93;4.40;;;;;;;13.05;100.00;99912.56;5038202;28;20230;-72
2023/03/30 06:26:47;;;;;;;7.93;4.17;;;;;;;13.05;100.00;99909.09;5041579;28;20192;-72
2023/03/30 06:29:13;;;;;;;5.50;3.93;;;;;;;13.05;100.00;99901.28;5032537;28;20190;-72
2023/03/30 06:31:38;;;;;;;7.87;3.87;;;;;;;13.04;100.00;99934.22;5046147;28;20335;-72
2023/03/30 06:34:04;;;;;;;9.20;4.70;;;;;;;13.05;100.00;99968.84;5037420;28;20188;-72
2023/03/30 06:36:29;;;;;;;9.83;4.67;;;;;;;13.05;100.00;99948.91;5039794;28;20340;-73
2023/03/30 06:38:54;;;;;;;9.23;4.73;;;;;;;13.04;100.00;99903.06;5035607;28;20191;-74
2023/03/30 06:41:20;;;;;;;9.70;4.63;;;;;;;13.05;100.00;99880.50;5032364;28;20258;-72
2023/03/30 06:43:46;;;;;;;6.83;3.97;;;;;;;13.04;100.00;99884.00;5040951;28;20237;-72
2023/03/30 06:46:12;;;;;;;8.67;5.30;;;;;;;13.04;100.00;99904.78;5043728;28;20218;-73
2023/03/30 06:48:38;;;;;;;9.10;4.30;;;;;;;13.02;100.00;99911.75;5054622;28;20961;-73
2023/03/30 06:51:05;;;;;;;7.03;4.10;;;;;;;12.99;100.00;99910.09;5036777;28;20218;-72
2023/03/30 06:53:31;;;;;;;8.53;4.33;;;;;;;12.98;100.00;99902.34;5049998;28;20181;-73
2023/03/30 06:55:57;;;;;;;7.77;3.80;;;;;;;12.96;100.00;99915.34;5037033;28;20709;-71
2023/03/30 06:58:24;;;;;;;7.17;3.93;;;;;;;12.96;100.00;99912.75;5041264;28;20746;-72
2023/03/30 07:00:50;;;;;;;10.80;4.40;;;;;;;12.94;100.00;99930.13;5051544;28;20193;-72
2023/03/30 07:03:17;;;;;;;8.97;4.27;;;;;;;12.93;100.00;99912.88;5045284;28;20261;-73
2023/03/30 07:05:46;;;;;;;8.83;4.00;;;;;;;12.91;100.00;99904.25;5037773;28;20181;-73
2023/03/30 07:08:13;;;;;;;8.00;4.77;;;;;;;12.90;100.00;99897.34;5049011;28;20193;-73
2023/03/30 07:10:38;;;;;;;9.10;4.00;;;;;;;12.89;100.00;99896.47;5037452;28;20198;-73
2023/03/30 07:13:03;;;;;;;6.10;4.33;;;;;;;12.88;100.00;99912.94;5047343;28;21092;-73
2023/03/30 07:15:29;;;;;;;8.43;4.00;;;;;;;12.90;100.00;99910.34;5040323;28;20323;-73
2023/03/30 07:17:54;;;;;;;6.63;3.80;;;;;;;12.88;100.00;99905.16;5038245;28;20186;-74
2023/03/30 07:20:19;;;;;;;6.73;3.97;;;;;;;12.90;100.00;99923.31;5034656;28;20190;-73
2023/03/30 07:22:45;;;;;;;6.63;3.70;;;;;;;12.91;100.00;99948.41;5034974;28;20256;-72
2023/03/30 07:25:10;;;;;;;6.83;3.80;;;;;;;12.89;100.00;99956.22;5036167;28;20191;-74
2023/03/30 07:27:36;;;;;;;7.30;3.83;;;;;;;12.90;100.00;99959.69;5038250;28;20184;-73
2023/03/30 07:30:04;;;;;;;8.63;4.07;;;;;;;12.89;100.00;99932.84;5034444;28;20197;-74
2023/03/30 07:32:30;;;;;;;7.13;3.77;;;;;;;12.91;100.00;99938.84;5045164;28;20204;-72
2023/03/30 07:34:56;;;;;;;8.73;3.70;;;;;;;12.96;100.00;99962.13;5036894;28;20193;-73
2023/03/30 07:37:22;;;;;;;7.20;4.37;;;;;;;12.99;100.00;99977.63;5036430;28;20660;-73
2023/03/30 07:39:47;;;;;;;8.23;4.10;;;;;;;12.98;100.00;99978.53;5035577;28;20182;-73
2023/03/30 07:42:13;;;;;;;7.70;3.93;;;;;;;12.96;100.00;99970.78;5029900;28;20210;-73
2023/03/30 07:44:38;;;;;;;5.87;4.33;;;;;;;12.93;100.00;99949.22;5038055;28;20196;-73
2023/03/30 07:47:05;;;;;;;7.63;4.30;;;;;;;12.90;100.00;99942.34;5028526;28;20187;-73
2023/03/30 07:49:31;;;;;;;6.83;3.83;;;;;;;12.91;100.00;99948.41;5039962;28;20181;-73
2023/03/30 07:51:57;;;;;;;6.07;3.77;;;;;;;12.90;100.00;99944.09;5037835;28;20217;-75
2023/03/30 07:54:22;;;;;;;6.10;4.00;;;;;;;12.89;100.00;99930.25;5038507;28;20192;-72
2023/03/30 07:56:51;;;;;;;8.97;3.93;;;;;;;12.90;100.00;99889.56;5036663;28;20640;-74
2023/03/30 07:59:20;;;;;;;5.23;3.70;;;;;;;12.88;100.00;99886.97;5040599;28;20197;-73
2023/03/30 08:01:49;;;;;;;6.60;3.60;;;;;;;12.90;100.00;99879.16;5038608;28;20233;-74
2023/03/30 08:04:16;;;;;;;6.07;3.30;;;;;;;12.96;100.00;99882.47;5036424;28;20217;-74
2023/03/30 08:06:42;;;;;;;5.50;3.47;;;;;;;13.03;100.00;99879.69;5037300;28;20660;-73
2023/03/30 08:09:07;;;;;;;5.57;3.40;;;;;;;13.09;100.00;99863.97;5035515;28;20568;-75
2023/03/30 08:11:34;;;;;;;5.83;3.60;;;;;;;13.14;100.00;99877.69;5031957;28;20217;-75
2023/03/30 08:14:00;;;;;;;8.47;3.77;;;;;;;13.19;100.00;99877.56;5032556;28;20740;-75
2023/03/30 08:16:26;;;;;;;5.27;3.30;;;;;;;13.27;100.00;99871.28;5031515;28;20192;-75
2023/03/30 08:18:53;;;;;;;5.77;3.27;;;;;;;13.39;100.00;99864.88;5036184;28;20279;-74
2023/03/30 08:21:20;;;;;;;3.43;2.80;;;;;;;13.54;100.00;99848.03;5038414;28;20730;-73
2023/03/30 08:23:45;;;;;;;6.10;3.13;;;;;;;13.70;100.00;99850.19;5035620;28;20231;-72
2023/03/30 08:26:10;;;;;;;4.63;2.67;;;;;;;13.86;100.00;99850.59;5039131;28;20669;-74
2023/03/30 08:28:36;;;;;;;5.90;2.67;;;;;;;14.07;100.00;99854.28;5037286;28;20206;-73
2023/03/30 08:31:04;;;;;;;4.03;2.30;;;;;;;14.28;100.00;99851.94;5032731;28;20205;-74
2023/03/30 08:33:30;;;;;;;6.93;2.87;;;;;;;14.47;100.00;99850.47;5035729;28;20630;-75
2023/03/30 08:35:56;;;;;;;3.17;2.30;;;;;;;14.70;100.00;99853.25;5037244;28;20187;-74
2023/03/30 08:38:21;;;;;;;2.67;1.70;;;;;;;14.91;100.00;99846.47;5036778;28;20199;-74
2023/03/30 08:40:48;;;;;;;2.43;2.00;;;;;;;15.15;100.00;99852.59;5035930;28;20959;-73
2023/03/30 08:43:26;;;;;;;2.57;2.17;;;;;;;15.49;100.00;99851.41;5040401;28;20711;-74
2023/03/30 08:45:51;;;;;;;6.03;2.20;;;;;;;15.77;100.00;99845.16;5037317;28;20189;-74
2023/03/30 08:48:24;;;;;;;4.70;2.20;;;;;;;16.14;100.00;99861.19;5032936;28;20199;-74
2023/03/30 08:51:05;;;;;;;3.40;2.33;;;;;;;16.44;100.00;99856.50;5039412;28;20186;-74
2023/03/30 08:53:32;;;;;;;2.97;1.90;;;;;;;16.69;100.00;99844.19;5039447;28;20696;-74
2023/03/30 08:56:20;;;;;;;2.47;2.00;;;;;;;16.92;100.00;99859.78;5031113;28;20635;-74
2023/03/30 08:59:07;;;;;;;3.27;1.97;;;;;;;17.00;100.00;99885.63;5036959;28;21013;-74
2023/03/30 09:01:46;;;;;;;3.73;2.30;;;;;;;16.95;100.00;99902.41;5031431;28;20218;-74
2023/03/30 09:04:37;;;;;;;4.80;3.00;;;;;;;16.77;100.00;99910.91;5040231;28;20216;-75
2023/03/30 09:07:09;;;;;;;5.83;3.37;;;;;;;16.71;100.00;99908.53;5031023;28;20193;-73
2023/03/30 09:09:42;;;;;;;5.13;3.63;;;;;;;16.70;100.00;99911.22;5041485;28;20213;-74
2023/03/30 09:12:19;;;;;;;4.73;3.60;;;;;;;16.68;100.00;99919.13;5042313;28;20566;-75
2023/03/30 09:14:50;;;;;;;5.30;4.10;;;;;;;16.53;100.00;99936.25;5033341;28;20198;-75
2023/03/30 09:17:21;;;;;;;6.30;4.30;;;;;;;16.32;100.00;99948.38;5041483;28;20226;-74
2023/03/30 09:20:11;;;;;;;4.33;3.53;;;;;;;16.11;100.00;99971.78;5039411;28;20202;-74
2023/03/30 09:22:39;;;;;;;5.50;3.13;;;;;;;15.94;100.00;99976.78;5038071;28;20319;-73
2023/03/30 09:25:14;;;;;;;3.17;2.73;;;;;;;15.81;100.00;99984.16;5043443;28;20193;-74
2023/03/30 09:27:59;;;;;;;3.20;2.50;;;;;;;15.66;100.00;99993.38;5036923;28;20243;-75
2023/03/30 09:30:47;;;;;;;4.80;2.77;;;;;;;15.52;100.00;99996.47;5041358;28;20261;-74
2023/03/30 09:33:39;;;;;;;4.33;2.40;;;;;;;15.37;100.00;99993.47;5036044;28;20607;-74
2023/03/30 09:36:14;;;;;;;3.63;2.77;;;;;;;15.30;100.00;99980.69;5036466;28;20192;-74
2023/03/30 09:38:40;;;;;;;6.50;4.80;;;;;;;15.28;100.00;99946.84;5035008;28;20198;-74
2023/03/30 09:41:34;;;;;;;6.40;4.10;;;;;;;15.19;100.00;99947.16;5033993;28;20194;-72
2023/03/30 09:44:01;;;;;;;7.07;4.00;;;;;;;14.98;100.00;99943.53;5040073;28;20272;-78
2023/03/30 09:46:26;;;;;;;7.50;3.77;;;;;;;14.83;100.00;99943.13;5040131;28;20184;-74
2023/03/30 09:48:52;;;;;;;6.17;3.97;;;;;;;14.71;100.00;99943.50;5034201;28;20262;-74
2023/03/30 09:51:17;;;;;;;7.70;4.87;;;;;;;14.62;100.00;99949.84;5037808;28;20542;-74
2023/03/30 09:53:45;;;;;;;6.83;4.47;;;;;;;14.62;100.00;99940.25;5043404;28;20190;-73
2023/03/30 09:56:21;;;;;;;6.40;4.47;;;;;;;14.70;100.00;99939.19;5038094;28;20194;-75
2023/03/30 09:58:46;;;;;;;7.37;3.90;;;;;;;14.88;100.00;99933.41;5035202;28;20182;-76
2023/03/30 10:01:18;;;;;;;4.90;3.60;;;;;;;15.20;100.00;99933.22;5041824;28;20205;-74
2023/03/30 10:04:03;;;;;;;5.23;3.27;;;;;;;15.47;100.00;99922.75;5032456;28;20771;-71
2023/03/30 10:06:30;;;;;;;4.63;3.03;;;;;;;15.66;100.00;99922.94;5036825;28;20191;-71
2023/03/30 10:08:56;;;;;;;4.87;2.73;;;;;;;15.69;100.00;99923.69;5037968;28;20252;-72
2023/03/30 10:11:30;;;;;;;5.43;3.10;;;;;;;15.70;100.00;99921.94;5042663;28;20544;-72
2023/03/30 10:13:57;;;;;;;4.23;2.90;;;;;;;15.67;100.00;99924.63;5034232;28;20187;-72
2023/03/30 10:16:26;;;;;;;4.20;3.07;;;;;;;15.69;100.00;99923.69;5049746;28;20189;-72
2023/03/30 10:18:54;;;;;;;5.17;3.73;;;;;;;15.74;100.00;99918.31;5050752;28;20189;-73
2023/03/30 10:21:25;;;;;;;6.23;3.67;;;;;;;15.84;100.00;99937.09;5052808;28;20213;-72
2023/03/30 10:24:22;;;;;;;3.60;2.93;;;;;;;15.96;100.00;99923.63;5036958;28;20250;-73
2023/03/30 10:26:55;;;;;;;4.80;3.30;;;;;;;16.09;100.00;99923.16;5033104;28;20197;-73
2023/03/30 10:29:22;;;;;;;4.77;3.00;;;;;;;16.22;100.00;99921.78;5037363;28;20345;-72
2023/03/30 10:31:55;;;;;;;6.17;3.30;;;;;;;16.35;100.00;99911.72;5029695;28;20223;-72
2023/03/30 10:34:39;;;;;;;4.90;3.00;;;;;;;16.57;100.00;99908.25;5033653;28;20188;-72
2023/03/30 10:37:28;;;;;;;5.50;2.63;;;;;;;16.77;100.00;99915.31;5041420;28;20325;-72
2023/03/30 10:39:54;;;;;;;4.30;3.27;;;;;;;16.92;100.00;99909.44;5037366;28;20208;-72
2023/03/30 10:42:24;;;;;;;5.23;2.43;;;;;;;17.05;100.00;99901.13;5037506;28;20214;-73
2023/03/30 10:44:54;;;;;;;4.57;2.43;;;;;;;17.21;100.00;99911.75;5035976;28;20194;-73
2023/03/30 10:47:45;;;;;;;5.30;2.67;;;;;;;17.36;100.00;99915.50;5041469;28;20197;-72
2023/03/30 10:50:43;;;;;;;4.03;2.70;;;;;;;17.57;100.00;99916.31;5034198;28;20290;-72
2023/03/30 10:53:50;;;;;;;4.80;2.70;;;;;;;17.73;100.00;99915.66;5031893;28;20216;-73
2023/03/30 10:56:35;;;;;;;5.33;2.80;;;;;;;17.83;100.00;99896.84;5038752;28;20235;-73
2023/03/30 10:59:14;;;;;;;4.10;2.40;;;;;;;17.89;100.00;99900.94;5037218;28;20196;-72
2023/03/30 11:01:57;;;;;;;4.43;2.70;;;;;;;17.97;100.00;99914.56;5046165;28;20214;-73
2023/03/30 11:04:46;;;;;;;4.57;2.53;;;;;;;18.02;100.00;99908.28;5042700;28;20914;-71
2023/03/30 11:07:40;;;;;;;4.07;2.90;;;;;;;18.05;100.00;99922.06;5040167;28;20187;-72
2023/03/30 11:10:13;;;;;;;4.73;3.23;;;;;;;18.04;100.00;99916.91;5032769;28;20214;-74
2023/03/30 11:12:44;;;;;;;5.40;3.27;;;;;;;17.99;100.00;99917.13;5035809;28;20694;-72
2023/03/30 11:15:26;;;;;;;4.17;2.90;;;;;;;17.96;100.00;99918.06;5038705;28;20194;-73
2023/03/30 11:18:03;;;;;;;6.17;3.57;;;;;;;18.06;100.00;99918.53;5037349;28;20668;-72
2023/03/30 11:20:41;;;;;;;6.33;3.40;;;;;;;18.11;99.77;99920.94;5040952;28;20621;-72
2023/03/30 11:23:12;;;;;;;6.43;3.90;;;;;;;18.05;99.70;99913.38;5033128;28;20213;-72
2023/03/30 11:25:52;;;;;;;5.90;3.50;;;;;;;18.18;100.00;99924.97;5041058;28;20212;-73
2023/03/30 11:28:46;;;;;;;5.60;3.10;;;;;;;18.42;99.77;99916.88;5036013;28;20663;-71
2023/03/30 11:31:49;;;;;;;5.10;2.87;;;;;;;18.67;99.11;99908.69;5046929;28;20807;-71
2023/03/30 11:34:28;;;;;;;4.73;3.20;;;;;;;18.86;97.84;99910.41;5032966;28;20849;-72
2023/03/30 11:37:16;;;;;;;8.37;3.90;;;;;;;18.98;95.87;99912.44;5034928;28;21151;-71
2023/03/30 11:39:51;;;;;;;5.83;3.17;;;;;;;18.96;95.16;99914.28;5035826;28;20197;-74
2023/03/30 11:42:30;;;;;;;6.47;3.03;;;;;;;19.01;95.43;99914.91;5033281;28;20224;-71